createdAt,value
2023-05-13T00:00:41.452Z,1009.88
2023-05-13T00:01:41.446Z,1009.86
2023-05-13T00:02:41.581Z,1009.86
2023-05-13T00:03:41.500Z,1009.90
2023-05-13T00:04:41.405Z,1009.82
2023-05-13T00:05:41.415Z,1009.84
2023-05-13T00:06:41.490Z,1009.87
2023-05-13T00:07:41.380Z,1009.86
2023-05-13T00:08:41.448Z,1009.85
2023-05-13T00:09:41.444Z,1009.86
2023-05-13T00:10:41.362Z,1009.87
2023-05-13T00:11:41.370Z,1009.85
2023-05-13T00:12:41.374Z,1009.80
2023-05-13T00:13:41.314Z,1009.80
2023-05-13T00:14:41.369Z,1009.78
2023-05-13T00:15:41.335Z,1009.82
2023-05-13T00:16:41.420Z,1009.87
2023-05-13T00:17:41.301Z,1009.87
2023-05-13T00:18:41.341Z,1009.91
2023-05-13T00:19:41.252Z,1009.87
2023-05-13T00:20:41.240Z,1009.88
2023-05-13T00:21:41.233Z,1009.91
2023-05-13T00:22:41.264Z,1009.81
2023-05-13T00:23:41.255Z,1009.86
2023-05-13T00:24:41.257Z,1009.87
2023-05-13T00:25:41.183Z,1009.86
2023-05-13T00:26:41.176Z,1009.93
2023-05-13T00:27:41.170Z,1009.88
2023-05-13T00:28:41.146Z,1009.84
2023-05-13T00:29:41.210Z,1009.89
2023-05-13T00:30:41.123Z,1009.97
2023-05-13T00:31:41.130Z,1009.89
2023-05-13T00:32:41.171Z,1009.89
2023-05-13T00:33:41.112Z,1009.91
2023-05-13T00:34:41.134Z,1009.93
2023-05-13T00:35:41.091Z,1009.92
2023-05-13T00:36:41.068Z,1009.90
2023-05-13T00:37:41.056Z,1009.94
2023-05-13T00:38:41.072Z,1009.90
2023-05-13T00:39:41.106Z,1009.94
2023-05-13T00:40:41.012Z,1009.95
2023-05-13T00:41:40.993Z,1009.91
2023-05-13T00:42:41.067Z,1009.89
2023-05-13T00:43:40.986Z,1009.94
2023-05-13T00:44:41.079Z,1009.94
2023-05-13T00:45:41.103Z,1009.91
2023-05-13T00:46:40.978Z,1009.92
2023-05-13T00:47:41.082Z,1009.99
2023-05-13T00:48:40.934Z,1009.93
2023-05-13T00:49:40.984Z,1009.89
2023-05-13T00:50:40.912Z,1009.94
2023-05-13T00:51:40.909Z,1009.93
2023-05-13T00:52:40.902Z,1009.93
2023-05-13T00:53:40.961Z,1009.95
2023-05-13T00:54:40.896Z,1009.95
2023-05-13T00:55:40.960Z,1009.94
2023-05-13T00:56:40.896Z,1009.93
2023-05-13T00:57:40.914Z,1009.97
2023-05-13T00:58:40.838Z,1009.98
2023-05-13T00:59:40.832Z,1009.95
2023-05-13T01:00:40.898Z,1010.00
2023-05-13T01:01:40.818Z,1009.98
2023-05-13T01:02:40.934Z,1009.98
2023-05-13T01:03:40.801Z,1009.98
2023-05-13T01:04:40.898Z,1009.97
2023-05-13T01:05:40.789Z,1009.99
2023-05-13T01:06:40.786Z,1010.03
2023-05-13T01:07:40.731Z,1009.99
2023-05-13T01:08:40.724Z,1009.96
2023-05-13T01:09:40.785Z,1010.00
2023-05-13T01:10:40.726Z,1009.96
2023-05-13T01:11:40.684Z,1009.92
2023-05-13T01:12:40.684Z,1009.94
2023-05-13T01:13:40.734Z,1009.93
2023-05-13T01:14:40.745Z,1009.95
2023-05-13T01:15:40.662Z,1009.94
2023-05-13T01:16:40.695Z,1009.97
2023-05-13T01:17:40.683Z,1009.98
2023-05-13T01:18:40.720Z,1009.95
2023-05-13T01:19:40.641Z,1009.96
2023-05-13T01:20:40.653Z,1009.94
2023-05-13T01:21:40.596Z,1009.99
2023-05-13T01:22:40.583Z,1009.96
2023-05-13T01:23:40.639Z,1009.93
2023-05-13T01:24:40.623Z,1009.95
2023-05-13T01:25:40.543Z,1009.99
2023-05-13T01:26:40.640Z,1009.95
2023-05-13T01:27:40.523Z,1009.99
2023-05-13T01:28:40.604Z,1009.97
2023-05-13T01:29:40.539Z,1010.02
2023-05-13T01:30:40.601Z,1010.02
2023-05-13T01:31:40.522Z,1009.99
2023-05-13T01:32:40.684Z,1009.98
2023-05-13T01:33:40.528Z,1009.98
2023-05-13T01:34:40.641Z,1009.98
2023-05-13T01:35:40.449Z,1009.98
2023-05-13T01:36:40.471Z,1010.04
2023-05-13T01:37:40.423Z,1010.00
2023-05-13T01:38:40.524Z,1009.97
2023-05-13T01:39:40.541Z,1009.97
2023-05-13T01:40:40.484Z,1010.02
2023-05-13T01:41:40.389Z,1009.99
2023-05-13T01:42:40.385Z,1009.99
2023-05-13T01:43:40.359Z,1010.01
2023-05-13T01:44:40.453Z,1010.02
2023-05-13T01:45:40.336Z,1010.06
2023-05-13T01:46:40.634Z,1010.00
2023-05-13T01:47:40.325Z,1010.08
2023-05-13T01:48:40.310Z,1010.04
2023-05-13T01:49:40.379Z,1010.04
2023-05-13T01:50:40.315Z,1010.07
2023-05-13T01:51:40.311Z,1010.05
2023-05-13T01:52:40.313Z,1010.08
2023-05-13T01:53:40.324Z,1010.04
2023-05-13T01:54:40.328Z,1010.03
2023-05-13T01:55:40.243Z,1010.06
2023-05-13T01:56:40.261Z,1010.09
2023-05-13T01:57:40.338Z,1010.06
2023-05-13T01:58:40.244Z,1010.09
2023-05-13T01:59:40.326Z,1010.04
2023-05-13T02:00:40.198Z,1010.07
2023-05-13T02:01:40.310Z,1010.05
2023-05-13T02:02:40.234Z,1010.06
2023-05-13T02:03:40.266Z,1010.06
2023-05-13T02:04:40.236Z,1010.04
2023-05-13T02:05:40.319Z,1010.05
2023-05-13T02:06:40.118Z,1010.04
2023-05-13T02:07:40.105Z,1010.03
2023-05-13T02:08:40.112Z,1010.05
2023-05-13T02:09:40.140Z,1010.10
2023-05-13T02:10:40.437Z,1010.11
2023-05-13T02:11:40.089Z,1010.05
2023-05-13T02:12:40.051Z,1010.01
2023-05-13T02:13:40.039Z,1010.00
2023-05-13T02:14:40.107Z,1010.05
2023-05-13T02:15:40.027Z,1010.06
2023-05-13T02:16:40.139Z,1010.07
2023-05-13T02:17:40.069Z,1010.03
2023-05-13T02:18:40.635Z,1010.09
2023-05-13T02:19:41.048Z,1010.04
2023-05-13T02:20:39.963Z,1010.07
2023-05-13T02:21:39.956Z,1010.10
2023-05-13T02:22:39.967Z,1010.03
2023-05-13T02:23:39.956Z,1010.06
2023-05-13T02:24:39.921Z,1010.06
2023-05-13T02:25:42.515Z,1010.04
2023-05-13T02:26:41.254Z,1010.08
2023-05-13T02:27:39.890Z,1010.07
2023-05-13T02:28:39.889Z,1010.09
2023-05-13T02:29:39.887Z,1010.06
2023-05-13T02:30:39.931Z,1010.01
2023-05-13T02:31:39.903Z,1010.06
2023-05-13T02:32:39.899Z,1010.04
2023-05-13T02:33:39.836Z,1010.06
2023-05-13T02:34:40.036Z,1010.03
2023-05-13T02:35:39.868Z,1010.05
2023-05-13T02:37:00.827Z,1010.08
2023-05-13T02:37:39.864Z,1010.01
2023-05-13T02:38:39.819Z,1010.05
2023-05-13T02:39:39.765Z,1010.02
2023-05-13T02:40:39.761Z,1010.09
2023-05-13T02:41:39.820Z,1010.05
2023-05-13T02:42:39.751Z,1010.03
2023-05-13T02:43:39.715Z,1010.02
2023-05-13T02:44:39.736Z,1010.01
2023-05-13T02:45:39.738Z,1010.04
2023-05-13T02:46:39.775Z,1009.97
2023-05-13T02:47:39.735Z,1010.03
2023-05-13T02:48:39.675Z,1010.01
2023-05-13T02:49:39.671Z,1010.01
2023-05-13T02:50:39.654Z,1010.05
2023-05-13T02:51:39.679Z,1009.99
2023-05-13T02:52:39.629Z,1009.96
2023-05-13T02:53:39.610Z,1009.99
2023-05-13T02:54:39.622Z,1010.01
2023-05-13T02:55:39.593Z,1010.01
2023-05-13T02:56:39.660Z,1009.98
2023-05-13T02:57:39.577Z,1009.97
2023-05-13T02:58:39.619Z,1009.98
2023-05-13T02:59:39.564Z,1009.98
2023-05-13T03:00:39.580Z,1009.95
2023-05-13T03:01:39.641Z,1009.93
2023-05-13T03:02:39.588Z,1009.96
2023-05-13T03:03:39.585Z,1009.92
2023-05-13T03:04:39.522Z,1009.94
2023-05-13T03:05:39.497Z,1009.98
2023-05-13T03:06:39.492Z,1009.96
2023-05-13T03:07:39.555Z,1009.95
2023-05-13T03:08:39.466Z,1009.95
2023-05-13T03:09:39.456Z,1009.99
2023-05-13T03:10:39.517Z,1009.95
2023-05-13T03:11:39.431Z,1009.95
2023-05-13T03:12:39.479Z,1009.97
2023-05-13T03:13:39.422Z,1009.95
2023-05-13T03:14:39.419Z,1009.96
2023-05-13T03:15:40.161Z,1009.89
2023-05-13T03:16:39.524Z,1009.91
2023-05-13T03:17:39.490Z,1009.89
2023-05-13T03:18:39.444Z,1009.96
2023-05-13T03:19:39.353Z,1009.93
2023-05-13T03:20:39.347Z,1009.91
2023-05-13T03:21:39.428Z,1009.91
2023-05-13T03:22:39.316Z,1009.95
2023-05-13T03:23:39.331Z,1009.90
2023-05-13T03:24:39.302Z,1009.92
2023-05-13T03:25:39.315Z,1009.91
2023-05-13T03:26:39.307Z,1009.95
2023-05-13T03:27:39.329Z,1009.92
2023-05-13T03:28:39.331Z,1009.96
2023-05-13T03:29:39.272Z,1009.97
2023-05-13T03:30:39.219Z,1009.97
2023-05-13T03:31:39.301Z,1009.96
2023-05-13T03:32:39.293Z,1010.00
2023-05-13T03:33:39.254Z,1009.97
2023-05-13T03:34:39.216Z,1009.99
2023-05-13T03:35:39.185Z,1010.04
2023-05-13T03:36:39.171Z,1010.00
2023-05-13T03:37:39.161Z,1010.06
2023-05-13T03:38:39.309Z,1010.03
2023-05-13T03:39:39.130Z,1010.05
2023-05-13T03:40:39.124Z,1010.05
2023-05-13T03:41:39.120Z,1010.00
2023-05-13T03:42:39.125Z,1010.02
2023-05-13T03:43:39.447Z,1010.00
2023-05-13T03:44:39.345Z,1010.02
2023-05-13T03:45:39.082Z,1010.07
2023-05-13T03:46:39.112Z,1010.00
2023-05-13T03:47:39.115Z,1009.99
2023-05-13T03:48:39.113Z,1010.02
2023-05-13T03:49:39.033Z,1010.04
2023-05-13T03:50:39.032Z,1010.05
2023-05-13T03:51:39.029Z,1010.08
2023-05-13T03:52:38.992Z,1010.05
2023-05-13T03:53:39.050Z,1010.08
2023-05-13T03:54:38.977Z,1010.09
2023-05-13T03:55:38.979Z,1010.10
2023-05-13T03:56:38.972Z,1010.05
2023-05-13T03:57:39.020Z,1010.08
2023-05-13T03:58:38.943Z,1010.08
2023-05-13T03:59:39.011Z,1010.12
2023-05-13T04:00:38.942Z,1010.05
2023-05-13T04:01:38.966Z,1010.09
2023-05-13T04:02:39.011Z,1010.09
2023-05-13T04:03:38.904Z,1010.09
2023-05-13T04:04:38.992Z,1010.14
2023-05-13T04:05:38.885Z,1010.09
2023-05-13T04:06:38.953Z,1010.10
2023-05-13T04:07:38.969Z,1010.14
2023-05-13T04:08:38.829Z,1010.12
2023-05-13T04:09:38.865Z,1010.15
2023-05-13T04:10:38.876Z,1010.15
2023-05-13T04:11:38.944Z,1010.14
2023-05-13T04:12:38.821Z,1010.13
2023-05-13T04:13:38.784Z,1010.13
2023-05-13T04:14:38.786Z,1010.17
2023-05-13T04:15:38.850Z,1010.23
2023-05-13T04:16:38.861Z,1010.18
2023-05-13T04:17:38.779Z,1010.22
2023-05-13T04:18:38.836Z,1010.25
2023-05-13T04:19:38.717Z,1010.25
2023-05-13T04:20:38.850Z,1010.25
2023-05-13T04:21:38.694Z,1010.25
2023-05-13T04:22:38.719Z,1010.27
2023-05-13T04:23:38.703Z,1010.29
2023-05-13T04:24:38.665Z,1010.23
2023-05-13T04:25:38.668Z,1010.26
2023-05-13T04:26:38.704Z,1010.22
2023-05-13T04:27:38.631Z,1010.22
2023-05-13T04:28:38.633Z,1010.25
2023-05-13T04:29:38.622Z,1010.25
2023-05-13T04:30:38.613Z,1010.27
2023-05-13T04:31:38.692Z,1010.28
2023-05-13T04:32:38.597Z,1010.23
2023-05-13T04:33:38.624Z,1010.25
2023-05-13T04:34:38.565Z,1010.21
2023-05-13T04:35:38.546Z,1010.20
2023-05-13T04:36:38.617Z,1010.27
2023-05-13T04:37:38.545Z,1010.23
2023-05-13T04:38:38.519Z,1010.27
2023-05-13T04:39:38.502Z,1010.32
2023-05-13T04:40:38.496Z,1010.26
2023-05-13T04:41:38.530Z,1010.29
2023-05-13T04:42:38.468Z,1010.29
2023-05-13T04:43:38.538Z,1010.31
2023-05-13T04:44:38.451Z,1010.34
2023-05-13T04:45:38.436Z,1010.36
2023-05-13T04:46:38.556Z,1010.32
2023-05-13T04:47:38.506Z,1010.32
2023-05-13T04:48:38.418Z,1010.32
2023-05-13T04:49:38.473Z,1010.37
2023-05-13T04:50:38.393Z,1010.38
2023-05-13T04:51:38.379Z,1010.34
2023-05-13T04:52:38.371Z,1010.34
2023-05-13T04:53:38.413Z,1010.37
2023-05-13T04:54:38.364Z,1010.38
2023-05-13T04:55:38.431Z,1010.37
2023-05-13T04:56:38.334Z,1010.36
2023-05-13T04:57:38.313Z,1010.40
2023-05-13T04:58:38.325Z,1010.37
2023-05-13T04:59:38.301Z,1010.41
2023-05-13T05:00:38.338Z,1010.43
2023-05-13T05:01:38.317Z,1010.43
2023-05-13T05:02:38.318Z,1010.44
2023-05-13T05:03:38.312Z,1010.42
2023-05-13T05:04:38.243Z,1010.40
2023-05-13T05:05:38.295Z,1010.46
2023-05-13T05:06:38.236Z,1010.45
2023-05-13T05:07:38.212Z,1010.44
2023-05-13T05:08:38.224Z,1010.48
2023-05-13T05:09:38.204Z,1010.47
2023-05-13T05:10:38.188Z,1010.43
2023-05-13T05:11:38.226Z,1010.41
2023-05-13T05:12:38.225Z,1010.40
2023-05-13T05:13:38.165Z,1010.40
2023-05-13T05:14:38.152Z,1010.46
2023-05-13T05:15:38.199Z,1010.45
2023-05-13T05:16:38.116Z,1010.45
2023-05-13T05:17:38.191Z,1010.47
2023-05-13T05:18:38.214Z,1010.42
2023-05-13T05:19:38.148Z,1010.41
2023-05-13T05:20:38.061Z,1010.44
2023-05-13T05:21:38.055Z,1010.43
2023-05-13T05:22:38.042Z,1010.46
2023-05-13T05:23:38.048Z,1010.46
2023-05-13T05:24:38.101Z,1010.49
2023-05-13T05:25:38.023Z,1010.51
2023-05-13T05:26:38.041Z,1010.51
2023-05-13T05:27:38.005Z,1010.48
2023-05-13T05:28:38.073Z,1010.51
2023-05-13T05:29:37.978Z,1010.52
2023-05-13T05:30:37.971Z,1010.48
2023-05-13T05:31:38.025Z,1010.45
2023-05-13T05:32:38.062Z,1010.48
2023-05-13T05:33:37.996Z,1010.42
2023-05-13T05:34:37.919Z,1010.50
2023-05-13T05:35:37.917Z,1010.46
2023-05-13T05:36:38.353Z,1010.48
2023-05-13T05:37:37.894Z,1010.45
2023-05-13T05:38:37.956Z,1010.49
2023-05-13T05:39:37.867Z,1010.44
2023-05-13T05:40:37.865Z,1010.46
2023-05-13T05:41:37.847Z,1010.49
2023-05-13T05:42:37.872Z,1010.48
2023-05-13T05:43:37.901Z,1010.51
2023-05-13T05:44:37.855Z,1010.50
2023-05-13T05:45:37.849Z,1010.55
2023-05-13T05:46:37.793Z,1010.50
2023-05-13T05:47:37.818Z,1010.49
2023-05-13T05:48:37.874Z,1010.48
2023-05-13T05:49:37.776Z,1010.48
2023-05-13T05:50:37.746Z,1010.51
2023-05-13T05:51:37.803Z,1010.50
2023-05-13T05:52:37.740Z,1010.50
2023-05-13T05:53:37.720Z,1010.47
2023-05-13T05:54:37.804Z,1010.52
2023-05-13T05:55:37.710Z,1010.50
2023-05-13T05:56:37.755Z,1010.50
2023-05-13T05:57:37.674Z,1010.46
2023-05-13T05:58:37.678Z,1010.51
2023-05-13T05:59:37.718Z,1010.52
2023-05-13T06:00:37.654Z,1010.52
2023-05-13T06:01:37.714Z,1010.54
2023-05-13T06:02:37.804Z,1010.54
2023-05-13T06:03:37.786Z,1010.50
2023-05-13T06:04:37.739Z,1010.48
2023-05-13T06:05:37.607Z,1010.53
2023-05-13T06:06:37.842Z,1010.47
2023-05-13T06:07:37.582Z,1010.51
2023-05-13T06:08:37.562Z,1010.51
2023-05-13T06:09:37.619Z,1010.51
2023-05-13T06:10:37.553Z,1010.53
2023-05-13T06:11:37.608Z,1010.54
2023-05-13T06:12:37.534Z,1010.52
2023-05-13T06:13:37.521Z,1010.52
2023-05-13T06:14:37.515Z,1010.51
2023-05-13T06:15:37.590Z,1010.49
2023-05-13T06:16:37.544Z,1010.49
2023-05-13T06:17:37.574Z,1010.45
2023-05-13T06:18:37.484Z,1010.47
2023-05-13T06:19:37.464Z,1010.51
2023-05-13T06:20:37.505Z,1010.52
2023-05-13T06:21:37.433Z,1010.50
2023-05-13T06:22:37.489Z,1010.52
2023-05-13T06:23:37.406Z,1010.47
2023-05-13T06:24:37.390Z,1010.45
2023-05-13T06:25:37.390Z,1010.49
2023-05-13T06:26:37.419Z,1010.53
2023-05-13T06:27:37.431Z,1010.49
2023-05-13T06:28:37.351Z,1010.50
2023-05-13T06:29:37.358Z,1010.46
2023-05-13T06:30:37.376Z,1010.49
2023-05-13T06:31:37.340Z,1010.41
2023-05-13T06:32:39.374Z,1010.42
2023-05-13T06:33:37.432Z,1010.46
2023-05-13T06:34:37.281Z,1010.48
2023-05-13T06:35:37.267Z,1010.45
2023-05-13T06:36:37.280Z,1010.47
2023-05-13T06:37:37.355Z,1010.46
2023-05-13T06:38:37.258Z,1010.48
2023-05-13T06:39:37.235Z,1010.48
2023-05-13T06:40:37.291Z,1010.50
2023-05-13T06:41:37.197Z,1010.46
2023-05-13T06:42:37.205Z,1010.45
2023-05-13T06:43:37.273Z,1010.48
2023-05-13T06:44:37.185Z,1010.50
2023-05-13T06:45:37.185Z,1010.43
2023-05-13T06:46:37.236Z,1010.50
2023-05-13T06:47:37.207Z,1010.50
2023-05-13T06:48:37.201Z,1010.48
2023-05-13T06:49:37.190Z,1010.45
2023-05-13T06:50:37.128Z,1010.48
2023-05-13T06:51:37.096Z,1010.51
2023-05-13T06:52:37.093Z,1010.47
2023-05-13T06:53:37.130Z,1010.50
2023-05-13T06:54:37.131Z,1010.48
2023-05-13T06:55:37.085Z,1010.46
2023-05-13T06:56:37.087Z,1010.48
2023-05-13T06:57:42.953Z,1010.52
2023-05-13T06:58:38.078Z,1010.52
2023-05-13T06:59:37.094Z,1010.58
2023-05-13T07:00:37.043Z,1010.55
2023-05-13T07:01:37.048Z,1010.56
2023-05-13T07:02:37.030Z,1010.56
2023-05-13T07:03:37.037Z,1010.51
2023-05-13T07:04:37.066Z,1010.46
2023-05-13T07:05:36.951Z,1010.48
2023-05-13T07:06:36.968Z,1010.49
2023-05-13T07:07:36.942Z,1010.52
2023-05-13T07:08:36.988Z,1010.53
2023-05-13T07:09:36.931Z,1010.49
2023-05-13T07:10:37.012Z,1010.53
2023-05-13T07:11:36.906Z,1010.47
2023-05-13T07:12:37.219Z,1010.48
2023-05-13T07:13:37.757Z,1010.49
2023-05-13T07:14:36.868Z,1010.47
2023-05-13T07:15:36.909Z,1010.51
2023-05-13T07:16:36.897Z,1010.54
2023-05-13T07:17:37.040Z,1010.52
2023-05-13T07:18:36.881Z,1010.50
2023-05-13T07:19:36.795Z,1010.49
2023-05-13T07:20:36.880Z,1010.49
2023-05-13T07:21:36.781Z,1010.53
2023-05-13T07:22:36.779Z,1010.52
2023-05-13T07:23:36.763Z,1010.44
2023-05-13T07:24:36.752Z,1010.48
2023-05-13T07:25:36.738Z,1010.54
2023-05-13T07:26:36.806Z,1010.52
2023-05-13T07:27:36.720Z,1010.52
2023-05-13T07:28:36.722Z,1010.53
2023-05-13T07:29:36.722Z,1010.57
2023-05-13T07:30:36.809Z,1010.51
2023-05-13T07:31:36.677Z,1010.56
2023-05-13T07:32:36.716Z,1010.53
2023-05-13T07:33:36.679Z,1010.55
2023-05-13T07:34:36.657Z,1010.56
2023-05-13T07:35:36.698Z,1010.52
2023-05-13T07:36:36.626Z,1010.54
2023-05-13T07:37:36.612Z,1010.54
2023-05-13T07:38:36.610Z,1010.53
2023-05-13T07:39:36.611Z,1010.55
2023-05-13T07:40:36.659Z,1010.57
2023-05-13T07:41:36.633Z,1010.57
2023-05-13T07:42:36.571Z,1010.53
2023-05-13T07:43:36.554Z,1010.49
2023-05-13T07:44:36.551Z,1010.47
2023-05-13T07:45:36.548Z,1010.50
2023-05-13T07:46:36.598Z,1010.52
2023-05-13T07:47:36.536Z,1010.51
2023-05-13T07:48:36.491Z,1010.47
2023-05-13T07:49:36.539Z,1010.46
2023-05-13T07:50:36.555Z,1010.46
2023-05-13T07:51:36.536Z,1010.48
2023-05-13T07:52:36.471Z,1010.42
2023-05-13T07:53:36.461Z,1010.49
2023-05-13T07:54:36.714Z,1010.50
2023-05-13T07:55:36.423Z,1010.50
2023-05-13T07:56:36.464Z,1010.47
2023-05-13T07:57:36.404Z,1010.50
2023-05-13T07:58:36.408Z,1010.52
2023-05-13T07:59:36.443Z,1010.53
2023-05-13T08:00:36.385Z,1010.46
2023-05-13T08:01:36.354Z,1010.49
2023-05-13T08:02:36.457Z,1010.39
2023-05-13T08:03:36.564Z,1010.46
2023-05-13T08:04:36.414Z,1010.43
2023-05-13T08:05:36.313Z,1010.49
2023-05-13T08:06:37.150Z,1010.47
2023-05-13T08:07:36.310Z,1010.50
2023-05-13T08:08:36.301Z,1010.50
2023-05-13T08:09:36.337Z,1010.46
2023-05-13T08:10:36.265Z,1010.42
2023-05-13T08:11:36.270Z,1010.49
2023-05-13T08:12:36.277Z,1010.48
2023-05-13T08:13:36.234Z,1010.46
2023-05-13T08:14:36.331Z,1010.49
2023-05-13T08:15:36.241Z,1010.49
2023-05-13T08:16:36.322Z,1010.48
2023-05-13T08:17:36.199Z,1010.50
2023-05-13T08:18:36.336Z,1010.51
2023-05-13T08:19:36.252Z,1010.52
2023-05-13T08:20:36.165Z,1010.56
2023-05-13T08:21:36.178Z,1010.51
2023-05-13T08:22:36.162Z,1010.51
2023-05-13T08:23:44.707Z,1010.54
2023-05-13T08:24:37.181Z,1010.47
2023-05-13T08:25:36.112Z,1010.51
2023-05-13T08:26:36.093Z,1010.49
2023-05-13T08:27:36.099Z,1010.49
2023-05-13T08:28:36.069Z,1010.51
2023-05-13T08:29:36.143Z,1010.51
2023-05-13T08:30:36.046Z,1010.52
2023-05-13T08:31:36.089Z,1010.51
2023-05-13T08:32:36.075Z,1010.56
2023-05-13T08:33:36.065Z,1010.49
2023-05-13T08:34:36.084Z,1010.49
2023-05-13T08:35:36.116Z,1010.46
2023-05-13T08:36:35.997Z,1010.45
2023-05-13T08:37:35.989Z,1010.48
2023-05-13T08:38:36.008Z,1010.46
2023-05-13T08:39:36.005Z,1010.46
2023-05-13T08:40:35.987Z,1010.45
2023-05-13T08:41:35.969Z,1010.47
2023-05-13T08:42:35.913Z,1010.49
2023-05-13T08:43:35.921Z,1010.50
2023-05-13T08:44:35.912Z,1010.47
2023-05-13T08:45:35.943Z,1010.46
2023-05-13T08:46:35.981Z,1010.46
2023-05-13T08:47:37.124Z,1010.45
2023-05-13T08:48:35.869Z,1010.52
2023-05-13T08:49:35.869Z,1010.51
2023-05-13T08:50:35.874Z,1010.49
2023-05-13T08:51:35.832Z,1010.52
2023-05-13T08:52:35.891Z,1010.51
2023-05-13T08:53:35.841Z,1010.48
2023-05-13T08:54:35.821Z,1010.47
2023-05-13T08:55:35.783Z,1010.48
2023-05-13T08:56:35.786Z,1010.46
2023-05-13T08:57:35.848Z,1010.55
2023-05-13T08:58:35.760Z,1010.51
2023-05-13T08:59:35.773Z,1010.46
2023-05-13T09:00:35.795Z,1010.49
2023-05-13T09:01:35.837Z,1010.52
2023-05-13T09:02:35.731Z,1010.46
2023-05-13T09:03:35.724Z,1010.47
2023-05-13T09:04:35.719Z,1010.45
2023-05-13T09:05:38.514Z,1010.43
2023-05-13T09:06:35.676Z,1010.44
2023-05-13T09:07:35.672Z,1010.44
2023-05-13T09:08:35.715Z,1010.44
2023-05-13T09:09:35.645Z,1010.47
2023-05-13T09:10:35.666Z,1010.40
2023-05-13T09:11:35.638Z,1010.43
2023-05-13T09:12:35.623Z,1010.43
2023-05-13T09:13:35.883Z,1010.48
2023-05-13T09:14:35.596Z,1010.44
2023-05-13T09:15:35.628Z,1010.46
2023-05-13T09:16:35.721Z,1010.47
2023-05-13T09:17:35.602Z,1010.41
2023-05-13T09:18:35.819Z,1010.43
2023-05-13T09:19:35.628Z,1010.48
2023-05-13T09:20:35.522Z,1010.47
2023-05-13T09:21:35.561Z,1010.47
2023-05-13T09:22:35.506Z,1010.39
2023-05-13T09:23:35.615Z,1010.46
2023-05-13T09:24:35.498Z,1010.48
2023-05-13T09:25:35.475Z,1010.47
2023-05-13T09:26:35.470Z,1010.47
2023-05-13T09:27:35.456Z,1010.45
2023-05-13T09:28:35.498Z,1010.41
2023-05-13T09:29:35.432Z,1010.39
2023-05-13T09:30:35.442Z,1010.38
2023-05-13T09:31:35.471Z,1010.38
2023-05-13T09:32:35.532Z,1010.35
2023-05-13T09:33:35.392Z,1010.38
2023-05-13T09:34:35.435Z,1010.37
2023-05-13T09:35:35.362Z,1010.30
2023-05-13T09:36:35.350Z,1010.33
2023-05-13T09:37:35.445Z,1010.33
2023-05-13T09:38:35.333Z,1010.32
2023-05-13T09:39:35.320Z,1010.31
2023-05-13T09:40:35.389Z,1010.32
2023-05-13T09:41:35.292Z,1010.27
2023-05-13T09:42:35.304Z,1010.29
2023-05-13T09:43:35.274Z,1010.35
2023-05-13T09:44:35.273Z,1010.28
2023-05-13T09:45:35.330Z,1010.28
2023-05-13T09:46:35.298Z,1010.34
2023-05-13T09:47:35.262Z,1010.32
2023-05-13T09:48:35.331Z,1010.36
2023-05-13T09:49:35.215Z,1010.38
2023-05-13T09:50:35.268Z,1010.38
2023-05-13T09:51:35.216Z,1010.32
2023-05-13T09:52:35.172Z,1010.31
2023-05-13T09:53:35.229Z,1010.34
2023-05-13T09:54:35.184Z,1010.34
2023-05-13T09:55:35.155Z,1010.35
2023-05-13T09:56:35.244Z,1010.35
2023-05-13T09:57:35.127Z,1010.30
2023-05-13T09:58:35.182Z,1010.26
2023-05-13T09:59:35.128Z,1010.33
2023-05-13T10:00:37.478Z,1010.33
2023-05-13T10:01:35.137Z,1010.32
2023-05-13T10:02:35.248Z,1010.34
2023-05-13T10:03:35.172Z,1010.31
2023-05-13T10:04:35.065Z,1010.25
2023-05-13T10:05:35.036Z,1010.29
2023-05-13T10:06:35.039Z,1010.35
2023-05-13T10:07:35.049Z,1010.28
2023-05-13T10:08:35.065Z,1010.35
2023-05-13T10:09:35.009Z,1010.29
2023-05-13T10:10:34.992Z,1010.28
2023-05-13T10:11:34.983Z,1010.27
2023-05-13T10:12:34.974Z,1010.26
2023-05-13T10:13:35.055Z,1010.28
2023-05-13T10:14:34.958Z,1010.33
2023-05-13T10:15:34.958Z,1010.31
2023-05-13T10:16:35.007Z,1010.35
2023-05-13T10:17:35.058Z,1010.27
2023-05-13T10:18:35.008Z,1010.35
2023-05-13T10:19:34.945Z,1010.25
2023-05-13T10:20:34.896Z,1010.23
2023-05-13T10:21:34.879Z,1010.26
2023-05-13T10:22:34.925Z,1010.23
2023-05-13T10:23:34.937Z,1010.23
2023-05-13T10:24:37.316Z,1010.21
2023-05-13T10:25:34.874Z,1010.23
2023-05-13T10:26:34.874Z,1010.15
2023-05-13T10:27:34.812Z,1010.17
2023-05-13T10:28:34.861Z,1010.12
2023-05-13T10:29:34.792Z,1010.20
2023-05-13T10:30:34.801Z,1010.11
2023-05-13T10:31:34.852Z,1010.14
2023-05-13T10:32:34.792Z,1010.11
2023-05-13T10:33:34.829Z,1010.15
2023-05-13T10:34:34.742Z,1010.11
2023-05-13T10:35:36.854Z,1010.08
2023-05-13T10:36:34.725Z,1010.11
2023-05-13T10:37:34.768Z,1010.12
2023-05-13T10:38:34.715Z,1010.15
2023-05-13T10:39:34.712Z,1010.16
2023-05-13T10:40:34.681Z,1010.12
2023-05-13T10:41:34.673Z,1010.12
2023-05-13T10:42:34.709Z,1010.09
2023-05-13T10:43:34.638Z,1010.08
2023-05-13T10:44:34.628Z,1010.06
2023-05-13T10:45:34.636Z,1009.98
2023-05-13T10:46:34.690Z,1010.04
2023-05-13T10:47:34.734Z,1010.06
2023-05-13T10:48:34.661Z,1010.08
2023-05-13T10:49:34.576Z,1010.07
2023-05-13T10:50:34.562Z,1010.06
2023-05-13T10:51:34.557Z,1010.00
2023-05-13T10:52:34.556Z,1010.03
2023-05-13T10:53:34.608Z,1010.00
2023-05-13T10:54:34.584Z,1010.03
2023-05-13T10:55:34.511Z,1010.02
2023-05-13T10:56:34.506Z,1009.99
2023-05-13T10:57:34.503Z,1010.01
2023-05-13T10:58:34.505Z,1009.97
2023-05-13T10:59:34.548Z,1010.03
2023-05-13T11:00:34.472Z,1009.99
2023-05-13T11:01:34.491Z,1009.98
2023-05-13T11:02:34.570Z,1009.97
2023-05-13T11:03:34.485Z,1009.99
2023-05-13T11:04:34.472Z,1009.98
2023-05-13T11:05:34.447Z,1009.96
2023-05-13T11:06:34.402Z,1009.93
2023-05-13T11:07:34.397Z,1009.96
2023-05-13T11:08:34.367Z,1010.01
2023-05-13T11:09:34.427Z,1009.93
2023-05-13T11:10:34.388Z,1009.90
2023-05-13T11:11:34.338Z,1009.94
2023-05-13T11:12:34.341Z,1009.94
2023-05-13T11:13:34.331Z,1009.93
2023-05-13T11:14:34.955Z,1009.84
2023-05-13T11:15:34.310Z,1009.90
2023-05-13T11:16:34.400Z,1009.89
2023-05-13T11:17:34.338Z,1009.84
2023-05-13T11:18:34.352Z,1009.86
2023-05-13T11:19:34.328Z,1009.87
2023-05-13T11:20:48.652Z,1009.92
2023-05-13T11:21:35.268Z,1009.89
2023-05-13T11:22:34.260Z,1009.91
2023-05-13T11:23:34.276Z,1009.87
2023-05-13T11:24:34.274Z,1009.84
2023-05-13T11:25:34.211Z,1009.85
2023-05-13T11:26:34.200Z,1009.82
2023-05-13T11:27:34.211Z,1009.80
2023-05-13T11:28:34.243Z,1009.77
2023-05-13T11:29:34.188Z,1009.82
2023-05-13T11:30:34.146Z,1009.81
2023-05-13T11:31:34.186Z,1009.79
2023-05-13T11:32:34.223Z,1009.75
2023-05-13T11:33:34.128Z,1009.78
2023-05-13T11:34:34.131Z,1009.71
2023-05-13T11:35:34.102Z,1009.71
2023-05-13T11:36:34.104Z,1009.69
2023-05-13T11:37:34.143Z,1009.72
2023-05-13T11:38:34.059Z,1009.75
2023-05-13T11:39:34.049Z,1009.71
2023-05-13T11:40:34.082Z,1009.72
2023-05-13T11:41:34.047Z,1009.70
2023-05-13T11:42:34.134Z,1009.67
2023-05-13T11:43:34.904Z,1009.75
2023-05-13T11:44:34.023Z,1009.79
2023-05-13T11:45:34.107Z,1009.76
2023-05-13T11:46:35.005Z,1009.75
2023-05-13T11:47:34.025Z,1009.73
2023-05-13T11:48:34.058Z,1009.68
2023-05-13T11:49:33.958Z,1009.68
2023-05-13T11:50:33.962Z,1009.65
2023-05-13T11:51:33.925Z,1009.66
2023-05-13T11:52:33.917Z,1009.71
2023-05-13T11:53:33.988Z,1009.70
2023-05-13T11:54:33.933Z,1009.70
2023-05-13T11:55:33.884Z,1009.71
2023-05-13T11:56:33.883Z,1009.66
2023-05-13T11:57:33.939Z,1009.70
2023-05-13T11:58:33.853Z,1009.75
2023-05-13T11:59:41.915Z,1009.70
2023-05-13T12:00:34.884Z,1009.73
2023-05-13T12:01:33.822Z,1009.69
2023-05-13T12:02:33.955Z,1009.71
2023-05-13T12:03:33.858Z,1009.70
2023-05-13T12:04:33.858Z,1009.72
2023-05-13T12:05:33.801Z,1009.73